createdAt,value
2022-08-30T00:00:03.327Z,0.00
2022-08-30T00:01:03.280Z,0.00
2022-08-30T00:03:07.348Z,0.00
2022-08-30T00:04:07.154Z,0.00
2022-08-30T00:06:11.080Z,0.00
2022-08-30T00:07:11.034Z,0.00
2022-08-30T00:09:14.938Z,0.00
2022-08-30T00:10:14.905Z,0.00
2022-08-30T00:12:07.753Z,0.00
2022-08-30T00:13:07.710Z,0.00
2022-08-30T00:15:12.342Z,0.00
2022-08-30T00:16:11.642Z,0.00
2022-08-30T00:18:15.515Z,0.00
2022-08-30T00:19:15.457Z,0.00
2022-08-30T00:21:19.364Z,0.00
2022-08-30T00:22:19.334Z,0.00
2022-08-30T00:24:23.083Z,0.00
2022-08-30T00:25:23.056Z,0.00
2022-08-30T00:27:26.942Z,0.00
2022-08-30T00:28:26.917Z,0.00
2022-08-30T00:30:30.830Z,0.00
2022-08-30T00:31:30.830Z,0.00
2022-08-30T00:33:34.702Z,0.00
2022-08-30T00:34:34.659Z,0.00
2022-08-30T00:36:38.588Z,0.00
2022-08-30T00:37:38.539Z,0.00
2022-08-30T00:39:42.451Z,0.00
2022-08-30T00:40:42.486Z,0.00
2022-08-30T00:42:50.560Z,0.00
2022-08-30T00:43:46.293Z,0.00
2022-08-30T00:45:50.231Z,0.00
2022-08-30T00:46:50.170Z,0.00
2022-08-30T00:48:54.073Z,0.00
2022-08-30T00:49:54.041Z,0.00
2022-08-30T00:51:46.890Z,0.00
2022-08-30T00:52:46.846Z,0.00
2022-08-30T00:54:50.770Z,0.00
2022-08-30T00:55:50.716Z,0.00
2022-08-30T00:57:54.621Z,0.00
2022-08-30T00:58:54.595Z,0.00
2022-08-30T01:00:58.509Z,0.00
2022-08-30T01:01:58.515Z,0.00
2022-08-30T01:04:02.462Z,0.00
2022-08-30T01:05:02.334Z,0.00
2022-08-30T01:07:06.240Z,0.00
2022-08-30T01:08:06.204Z,0.00
2022-08-30T01:10:10.129Z,0.00
2022-08-30T01:11:10.085Z,0.00
2022-08-30T01:13:14.001Z,0.00
2022-08-30T01:14:13.996Z,0.00
2022-08-30T01:16:17.919Z,0.00
2022-08-30T01:17:17.905Z,0.00
2022-08-30T01:19:21.754Z,0.00
2022-08-30T01:20:21.728Z,0.00
2022-08-30T01:22:14.544Z,0.00
2022-08-30T01:23:14.749Z,0.00
2022-08-30T01:25:18.436Z,0.00
2022-08-30T01:26:19.223Z,0.00
2022-08-30T01:28:22.306Z,0.00
2022-08-30T01:29:22.264Z,0.00
2022-08-30T01:31:26.232Z,0.00
2022-08-30T01:32:29.004Z,0.00
2022-08-30T01:34:30.048Z,0.00
2022-08-30T01:35:30.003Z,0.00
2022-08-30T01:36:29.974Z,0.00
2022-08-30T01:37:29.947Z,0.00
2022-08-30T01:38:29.914Z,0.00
2022-08-30T01:39:29.887Z,0.00
2022-08-30T01:40:30.077Z,0.00
2022-08-30T01:41:29.830Z,0.00
2022-08-30T01:42:29.797Z,0.00
2022-08-30T01:43:29.767Z,0.00
2022-08-30T01:44:29.739Z,0.00
2022-08-30T01:45:29.709Z,0.00
2022-08-30T01:46:29.759Z,0.00
2022-08-30T01:47:29.647Z,0.00
2022-08-30T01:48:30.933Z,0.00
2022-08-30T01:49:29.590Z,0.00
2022-08-30T01:50:29.558Z,0.00
2022-08-30T01:51:29.529Z,0.00
2022-08-30T01:52:29.499Z,0.00
2022-08-30T01:53:29.470Z,0.00
2022-08-30T01:54:33.291Z,0.00
2022-08-30T01:55:29.409Z,0.00
2022-08-30T01:56:29.408Z,0.00
2022-08-30T01:57:29.346Z,0.00
2022-08-30T01:58:29.315Z,0.00
2022-08-30T01:59:29.289Z,0.00
2022-08-30T02:00:29.259Z,0.00
2022-08-30T02:01:29.291Z,0.00
2022-08-30T02:02:29.995Z,0.00
2022-08-30T02:03:29.198Z,0.00
2022-08-30T02:06:07.674Z,0.00
2022-08-30T02:07:07.621Z,0.00
2022-08-30T02:09:11.530Z,0.00
2022-08-30T02:10:11.498Z,0.00
2022-08-30T02:12:04.351Z,0.00
2022-08-30T02:14:42.806Z,0.00
2022-08-30T02:15:42.781Z,0.00
2022-08-30T02:17:46.698Z,0.00
2022-08-30T02:18:46.645Z,0.00
2022-08-30T02:20:51.406Z,0.00
2022-08-30T02:21:53.057Z,0.00
2022-08-30T02:23:55.893Z,0.00
2022-08-30T02:24:55.846Z,0.00
2022-08-30T02:27:00.236Z,0.00
2022-08-30T02:28:00.210Z,0.00
2022-08-30T02:29:00.175Z,0.00
2022-08-30T02:30:00.160Z,0.00
2022-08-30T02:31:00.202Z,0.00
2022-08-30T02:32:00.095Z,0.00
2022-08-30T02:33:00.056Z,0.00
2022-08-30T02:34:00.034Z,0.00
2022-08-30T02:34:59.999Z,0.00
2022-08-30T02:35:59.969Z,0.00
2022-08-30T02:36:59.937Z,0.00
2022-08-30T02:37:59.909Z,0.00
2022-08-30T02:38:59.885Z,0.00
2022-08-30T02:39:59.878Z,0.00
2022-08-30T02:40:59.818Z,0.00
2022-08-30T02:41:59.814Z,0.00
2022-08-30T02:42:59.759Z,0.00
2022-08-30T02:43:59.728Z,0.00
2022-08-30T02:44:59.697Z,0.00
2022-08-30T02:45:59.772Z,0.00
2022-08-30T02:46:59.643Z,0.00
2022-08-30T02:47:59.610Z,0.00
2022-08-30T02:49:05.616Z,0.00
2022-08-30T02:49:59.547Z,0.00
2022-08-30T02:50:59.521Z,0.00
2022-08-30T02:51:59.515Z,0.00
2022-08-30T05:08:25.613Z,0.00
2022-08-30T05:09:25.556Z,0.00
2022-08-30T05:11:29.459Z,0.00
2022-08-30T05:12:29.427Z,0.00
2022-08-30T05:14:33.351Z,5.63
2022-08-30T05:17:11.802Z,5.63
2022-08-30T05:18:14.232Z,5.63
2022-08-30T05:20:15.679Z,5.63
2022-08-30T05:21:15.628Z,5.63
2022-08-30T05:23:19.547Z,5.63
2022-08-30T05:24:19.497Z,5.63
2022-08-30T05:26:25.061Z,5.63
2022-08-30T05:27:23.368Z,5.63
2022-08-30T05:29:27.267Z,5.63
2022-08-30T05:30:27.230Z,5.63
2022-08-30T05:32:20.075Z,5.63
2022-08-30T05:33:20.028Z,5.63
2022-08-30T05:35:25.924Z,5.63
2022-08-30T05:36:23.906Z,5.63
2022-08-30T05:38:27.819Z,5.63
2022-08-30T05:39:27.779Z,5.63
2022-08-30T05:41:20.605Z,5.63
2022-08-30T05:42:20.579Z,5.63
2022-08-30T05:44:25.935Z,5.63
2022-08-30T05:45:24.442Z,5.63
2022-08-30T05:47:28.846Z,5.63
2022-08-30T05:48:28.809Z,11.25
2022-08-30T05:50:34.931Z,11.25
2022-08-30T05:51:32.680Z,11.25
2022-08-30T05:53:36.611Z,11.25
2022-08-30T05:54:36.557Z,11.25
2022-08-30T05:56:40.477Z,11.25
2022-08-30T05:57:40.429Z,11.25
2022-08-30T05:59:44.343Z,11.25
2022-08-30T06:00:44.297Z,11.25
2022-08-30T06:02:48.268Z,11.25
2022-08-30T06:03:48.170Z,11.25
2022-08-30T06:05:52.087Z,11.25
2022-08-30T06:06:52.041Z,11.25
2022-08-30T06:08:55.954Z,11.25
2022-08-30T06:09:55.922Z,11.25
2022-08-30T06:11:48.768Z,11.25
2022-08-30T06:12:48.714Z,11.25
2022-08-30T06:14:53.541Z,11.25
2022-08-30T06:15:52.670Z,16.88
2022-08-30T06:17:56.498Z,16.88
2022-08-30T06:18:56.454Z,16.88
2022-08-30T06:21:00.365Z,16.88
2022-08-30T06:22:00.327Z,16.88
2022-08-30T06:24:04.226Z,16.88
2022-08-30T06:25:04.188Z,16.88
2022-08-30T06:27:08.102Z,16.88
2022-08-30T06:28:08.055Z,16.88
2022-08-30T06:30:11.977Z,16.88
2022-08-30T06:31:11.964Z,22.50
2022-08-30T06:33:15.848Z,22.50
2022-08-30T06:34:15.799Z,22.50
2022-08-30T06:36:19.707Z,28.13
2022-08-30T06:37:29.230Z,28.13
2022-08-30T06:39:23.583Z,28.13
2022-08-30T06:40:23.557Z,28.13
2022-08-30T06:42:16.416Z,22.50
2022-08-30T06:43:16.336Z,22.50
2022-08-30T06:44:16.311Z,22.50
2022-08-30T06:45:16.271Z,22.50
2022-08-30T06:46:16.259Z,28.13
2022-08-30T06:47:16.211Z,22.50
2022-08-30T06:48:16.336Z,22.50
2022-08-30T06:49:16.148Z,22.50
2022-08-30T06:50:16.118Z,22.50
2022-08-30T06:51:16.089Z,28.13
2022-08-30T06:52:16.058Z,28.13
2022-08-30T06:53:16.029Z,28.13
2022-08-30T06:54:15.995Z,28.13
2022-08-30T06:55:16.024Z,28.13
2022-08-30T06:56:16.796Z,28.13
2022-08-30T06:57:15.908Z,28.13
2022-08-30T06:58:16.031Z,28.13
2022-08-30T06:59:15.847Z,28.13
2022-08-30T07:00:15.811Z,28.13
2022-08-30T07:01:15.784Z,33.75
2022-08-30T07:02:15.796Z,33.75
2022-08-30T07:03:15.826Z,33.75
2022-08-30T07:04:15.687Z,33.75
2022-08-30T07:05:18.777Z,33.75
2022-08-30T07:06:15.628Z,33.75
2022-08-30T07:07:15.602Z,33.75
2022-08-30T07:08:15.658Z,33.75
2022-08-30T07:09:15.604Z,33.75
2022-08-30T07:10:15.511Z,33.75
2022-08-30T07:11:15.476Z,33.75
2022-08-30T07:12:15.450Z,33.75
2022-08-30T07:13:15.590Z,28.13
2022-08-30T07:14:15.385Z,28.13
2022-08-30T07:15:15.362Z,28.13
2022-08-30T07:16:15.377Z,28.13
2022-08-30T07:17:15.302Z,28.13
2022-08-30T07:18:15.265Z,28.13
2022-08-30T07:19:20.800Z,33.75
2022-08-30T07:20:15.203Z,33.75
2022-08-30T07:21:15.178Z,33.75
2022-08-30T07:22:15.147Z,39.38
2022-08-30T07:23:15.226Z,39.38
2022-08-30T07:24:15.087Z,39.38
2022-08-30T07:25:15.055Z,39.38
2022-08-30T07:26:15.025Z,39.38
2022-08-30T07:27:14.997Z,39.38
2022-08-30T07:28:14.966Z,33.75
2022-08-30T07:29:14.937Z,33.75
2022-08-30T07:30:14.906Z,33.75
2022-08-30T07:31:14.881Z,33.75
2022-08-30T07:32:14.848Z,39.38
2022-08-30T07:33:14.821Z,33.75
2022-08-30T07:34:14.794Z,39.38
2022-08-30T07:35:14.763Z,39.38
2022-08-30T07:36:14.728Z,39.38
2022-08-30T07:37:18.277Z,39.38
2022-08-30T07:38:14.670Z,39.38
2022-08-30T07:39:14.643Z,39.38
2022-08-30T07:40:14.660Z,39.38
2022-08-30T07:41:14.582Z,39.38
2022-08-30T07:42:14.555Z,39.38
2022-08-30T07:43:14.524Z,39.38
2022-08-30T07:44:14.493Z,33.75
2022-08-30T07:45:14.468Z,33.75
2022-08-30T07:46:14.456Z,33.75
2022-08-30T07:47:14.404Z,33.75
2022-08-30T07:48:14.375Z,33.75
2022-08-30T07:49:14.352Z,33.75
2022-08-30T07:50:14.317Z,33.75
2022-08-30T07:51:14.290Z,39.38
2022-08-30T07:52:14.264Z,39.38
2022-08-30T07:53:14.261Z,39.38
2022-08-30T07:54:14.198Z,39.38
2022-08-30T07:55:14.177Z,39.38
2022-08-30T07:56:14.143Z,39.38
2022-08-30T07:57:16.048Z,45.00
2022-08-30T07:58:14.086Z,45.00
2022-08-30T07:59:14.057Z,45.00
2022-08-30T08:00:14.028Z,39.38
2022-08-30T08:01:14.039Z,39.38
2022-08-30T08:02:13.993Z,39.38
2022-08-30T08:03:13.939Z,45.00
2022-08-30T08:04:13.910Z,45.00
2022-08-30T08:05:17.054Z,45.00
2022-08-30T08:06:13.855Z,45.00
2022-08-30T08:07:13.823Z,50.63
2022-08-30T08:08:13.794Z,50.63
2022-08-30T08:09:13.766Z,50.63
2022-08-30T08:10:13.740Z,50.63
2022-08-30T08:11:16.210Z,50.63
2022-08-30T08:12:13.679Z,50.63
2022-08-30T08:13:13.654Z,50.63
2022-08-30T08:14:13.622Z,50.63
2022-08-30T08:15:13.599Z,50.63
2022-08-30T08:16:13.590Z,50.63
2022-08-30T08:17:13.538Z,50.63
2022-08-30T08:18:13.515Z,50.63
2022-08-30T08:19:13.484Z,50.63
2022-08-30T08:20:13.474Z,50.63
2022-08-30T08:21:13.424Z,50.63
2022-08-30T08:22:21.720Z,50.63
2022-08-30T08:23:13.372Z,45.00
2022-08-30T08:24:13.340Z,45.00
2022-08-30T08:25:13.311Z,45.00
2022-08-30T08:26:13.280Z,45.00
2022-08-30T08:27:13.260Z,45.00
2022-08-30T08:28:13.252Z,45.00
2022-08-30T08:29:13.201Z,39.38
2022-08-30T08:30:13.171Z,39.38
2022-08-30T08:31:13.177Z,39.38
2022-08-30T08:32:13.117Z,39.38
2022-08-30T08:33:13.089Z,39.38
2022-08-30T08:34:13.066Z,39.38
2022-08-30T08:35:13.071Z,39.38
2022-08-30T08:36:13.001Z,39.38
2022-08-30T08:37:12.972Z,39.38
2022-08-30T08:38:12.989Z,39.38
2022-08-30T08:39:12.920Z,39.38
2022-08-30T08:40:12.945Z,39.38
2022-08-30T08:41:12.866Z,39.38
2022-08-30T08:42:12.832Z,39.38
2022-08-30T08:43:12.808Z,39.38
2022-08-30T08:44:12.778Z,39.38
2022-08-30T08:45:12.753Z,39.38
2022-08-30T08:46:12.733Z,39.38
2022-08-30T08:47:12.696Z,39.38
2022-08-30T08:48:12.736Z,39.38
2022-08-30T08:49:12.638Z,39.38
2022-08-30T08:50:12.609Z,39.38
2022-08-30T08:51:12.586Z,39.38
2022-08-30T08:52:12.556Z,39.38
2022-08-30T08:53:25.003Z,39.38
2022-08-30T08:54:12.500Z,39.38
2022-08-30T08:55:12.472Z,39.38
2022-08-30T08:56:12.444Z,39.38
2022-08-30T08:57:15.892Z,39.38
2022-08-30T08:58:12.452Z,39.38
2022-08-30T08:59:12.358Z,39.38
2022-08-30T09:00:12.334Z,39.38
2022-08-30T09:01:12.333Z,39.38
2022-08-30T09:02:12.280Z,39.38
2022-08-30T09:03:12.251Z,39.38
2022-08-30T09:04:12.224Z,39.38
2022-08-30T09:05:12.273Z,39.38
2022-08-30T09:06:12.169Z,39.38
2022-08-30T09:07:12.144Z,45.00
2022-08-30T09:08:12.114Z,50.63
2022-08-30T09:09:12.093Z,50.63
2022-08-30T09:10:12.054Z,45.00
2022-08-30T09:11:12.032Z,45.00
2022-08-30T09:12:12.008Z,45.00
2022-08-30T09:13:15.092Z,50.63
2022-08-30T09:14:11.944Z,50.63
2022-08-30T09:15:11.920Z,56.25
2022-08-30T09:16:13.987Z,56.25
2022-08-30T09:17:11.866Z,56.25
2022-08-30T09:18:19.496Z,56.25
2022-08-30T09:19:11.820Z,61.88
2022-08-30T09:20:11.783Z,61.88
2022-08-30T09:21:11.755Z,61.88
2022-08-30T09:22:11.728Z,61.88
2022-08-30T09:23:11.703Z,61.88
2022-08-30T09:24:11.674Z,67.50
2022-08-30T09:25:11.646Z,67.50
2022-08-30T09:26:11.619Z,67.50
2022-08-30T09:27:11.591Z,67.50
2022-08-30T09:28:11.565Z,67.50
2022-08-30T09:29:11.537Z,67.50
2022-08-30T09:30:15.100Z,67.50
2022-08-30T09:31:12.539Z,67.50
2022-08-30T09:32:25.382Z,67.50
2022-08-30T09:33:11.427Z,67.50
2022-08-30T09:34:11.398Z,73.13
2022-08-30T09:35:11.368Z,73.13
2022-08-30T09:36:11.343Z,67.50
2022-08-30T09:37:11.380Z,67.50
2022-08-30T09:38:11.294Z,67.50
2022-08-30T09:39:11.264Z,61.88
2022-08-30T09:40:11.305Z,61.88
2022-08-30T09:41:11.209Z,67.50
2022-08-30T09:42:11.181Z,67.50
2022-08-30T09:43:11.958Z,61.88
2022-08-30T09:44:11.127Z,56.25
2022-08-30T09:45:11.104Z,56.25
2022-08-30T09:46:11.243Z,56.25
2022-08-30T09:47:11.048Z,56.25
2022-08-30T09:48:11.020Z,61.88
2022-08-30T09:49:10.998Z,61.88
2022-08-30T09:50:10.967Z,61.88
2022-08-30T09:51:11.572Z,67.50
2022-08-30T09:52:10.918Z,67.50
2022-08-30T09:53:10.885Z,67.50
2022-08-30T09:54:18.702Z,73.13
2022-08-30T09:55:10.829Z,73.13
2022-08-30T09:56:10.803Z,73.13
2022-08-30T09:57:11.616Z,73.13
2022-08-30T09:58:10.750Z,73.13
2022-08-30T09:59:10.728Z,73.13
2022-08-30T10:00:11.764Z,73.13
2022-08-30T10:01:10.737Z,67.50
2022-08-30T10:02:10.696Z,67.50
2022-08-30T10:03:10.696Z,67.50
2022-08-30T10:04:10.604Z,73.13
2022-08-30T10:05:10.571Z,67.50
2022-08-30T10:06:10.540Z,67.50
2022-08-30T10:07:10.519Z,67.50
2022-08-30T10:08:12.644Z,73.13
2022-08-30T10:09:10.462Z,67.50
2022-08-30T10:10:10.440Z,73.13
2022-08-30T10:11:10.409Z,78.75
2022-08-30T10:12:10.382Z,78.75
2022-08-30T10:13:10.388Z,78.75
2022-08-30T10:14:10.327Z,78.75
2022-08-30T10:15:10.316Z,78.75
2022-08-30T10:16:10.277Z,84.38
2022-08-30T10:17:10.254Z,84.38
2022-08-30T10:18:10.263Z,84.38
2022-08-30T10:19:10.199Z,84.38
2022-08-30T10:20:10.254Z,84.38
2022-08-30T10:21:10.145Z,84.38
2022-08-30T10:22:10.122Z,84.38
2022-08-30T10:23:10.157Z,84.38
2022-08-30T10:24:10.074Z,84.38
2022-08-30T10:25:10.041Z,84.38
2022-08-30T10:26:10.018Z,84.38
2022-08-30T10:27:09.999Z,84.38
2022-08-30T10:28:09.972Z,90.00
2022-08-30T10:29:09.945Z,84.38
2022-08-30T10:30:09.929Z,84.38
2022-08-30T10:31:09.889Z,84.38
2022-08-30T10:32:09.860Z,84.38
2022-08-30T10:33:09.893Z,90.00
2022-08-30T10:34:09.807Z,90.00
2022-08-30T10:35:09.786Z,84.38
2022-08-30T10:36:10.530Z,90.00
2022-08-30T10:37:09.759Z,90.00
2022-08-30T10:38:09.707Z,90.00
2022-08-30T10:39:09.688Z,84.38
2022-08-30T10:40:09.685Z,90.00
2022-08-30T10:41:09.634Z,90.00
2022-08-30T10:42:09.610Z,90.00
2022-08-30T10:43:09.699Z,90.00
2022-08-30T10:44:09.556Z,90.00
2022-08-30T10:45:09.535Z,90.00
2022-08-30T10:46:09.510Z,90.00
2022-08-30T10:47:09.493Z,90.00
2022-08-30T10:48:09.460Z,95.63
2022-08-30T10:49:09.442Z,101.25
2022-08-30T10:50:09.414Z,101.25
2022-08-30T10:51:09.386Z,106.88
2022-08-30T10:52:09.364Z,118.13
2022-08-30T10:53:09.342Z,129.38
2022-08-30T10:54:09.312Z,135.00
2022-08-30T10:55:10.794Z,129.38
2022-08-30T10:56:09.265Z,135.00
2022-08-30T10:57:09.239Z,140.63
2022-08-30T10:58:09.216Z,146.25
2022-08-30T10:59:11.940Z,151.88
2022-08-30T11:00:09.187Z,157.50
2022-08-30T11:01:09.172Z,157.50
2022-08-30T11:02:09.124Z,163.13
2022-08-30T11:03:09.104Z,151.88
2022-08-30T11:04:09.101Z,151.88
2022-08-30T11:05:09.047Z,151.88
2022-08-30T11:06:09.035Z,106.88
2022-08-30T11:07:10.098Z,118.13
2022-08-30T11:08:09.002Z,106.88
2022-08-30T11:09:08.957Z,112.50
2022-08-30T11:10:09.008Z,112.50
2022-08-30T11:11:12.916Z,118.13
2022-08-30T11:12:08.881Z,135.00
2022-08-30T11:13:08.863Z,135.00
2022-08-30T11:14:08.841Z,106.88
2022-08-30T11:15:08.817Z,101.25
2022-08-30T11:16:08.793Z,106.88
2022-08-30T11:17:08.771Z,106.88
2022-08-30T11:18:08.745Z,118.13
2022-08-30T11:19:08.725Z,146.25
2022-08-30T11:20:08.704Z,208.13
2022-08-30T11:21:13.773Z,202.50
2022-08-30T11:22:08.655Z,213.75
2022-08-30T11:23:08.637Z,213.75
2022-08-30T11:24:11.446Z,208.13
2022-08-30T11:26:08.561Z,112.50
2022-08-30T11:27:08.537Z,112.50
2022-08-30T11:28:09.202Z,135.00
2022-08-30T11:29:08.491Z,219.38
2022-08-30T11:30:08.469Z,135.00
2022-08-30T11:31:08.447Z,157.50
2022-08-30T11:32:08.422Z,118.13
2022-08-30T11:33:09.370Z,129.38
2022-08-30T11:34:08.389Z,146.25
2022-08-30T11:35:11.203Z,135.00
2022-08-30T11:36:08.332Z,118.13
2022-08-30T11:37:10.019Z,123.75
2022-08-30T11:38:08.286Z,118.13
2022-08-30T11:39:08.262Z,123.75
2022-08-30T11:40:15.602Z,180.00
2022-08-30T11:41:09.489Z,225.00
2022-08-30T11:42:08.193Z,157.50
2022-08-30T11:43:08.171Z,135.00
2022-08-30T11:44:08.150Z,123.75
2022-08-30T11:45:08.127Z,174.38
2022-08-30T11:46:12.654Z,219.38
2022-08-30T11:47:08.084Z,151.88
2022-08-30T11:48:08.054Z,106.88
2022-08-30T11:49:08.155Z,106.88
2022-08-30T11:50:09.843Z,112.50
2022-08-30T11:51:07.990Z,185.63
2022-08-30T11:52:26.295Z,253.13
2022-08-30T11:53:07.947Z,258.75
2022-08-30T11:54:07.920Z,270.00
2022-08-30T11:55:07.901Z,258.75
2022-08-30T11:56:07.876Z,303.75
2022-08-30T11:57:07.860Z,292.50
2022-08-30T11:58:07.837Z,320.63
2022-08-30T11:59:07.808Z,326.25
2022-08-30T12:00:07.796Z,331.88
2022-08-30T12:01:20.635Z,348.75
2022-08-30T12:02:07.933Z,337.50
2022-08-30T12:03:07.839Z,331.88
2022-08-30T12:04:07.695Z,298.13
2022-08-30T12:05:07.671Z,309.38
2022-08-30T12:06:07.649Z,320.63
2022-08-30T12:07:07.629Z,270.00
2022-08-30T12:08:07.602Z,112.50
2022-08-30T12:09:08.313Z,112.50
2022-08-30T12:10:07.572Z,112.50
2022-08-30T12:11:07.537Z,118.13
2022-08-30T12:12:07.521Z,129.38
2022-08-30T12:13:07.509Z,129.38
2022-08-30T12:14:09.360Z,135.00
2022-08-30T12:15:07.449Z,146.25
2022-08-30T12:16:07.444Z,230.63
2022-08-30T12:17:07.403Z,298.13
2022-08-30T12:18:07.380Z,360.00
2022-08-30T12:19:07.359Z,140.63
2022-08-30T12:20:07.336Z,258.75
2022-08-30T12:21:07.845Z,331.88
2022-08-30T12:22:07.289Z,348.75
2022-08-30T12:23:07.268Z,337.50
2022-08-30T12:24:07.246Z,360.00
2022-08-30T12:25:07.226Z,337.50
2022-08-30T12:26:07.202Z,343.13
2022-08-30T12:27:07.183Z,230.63
2022-08-30T12:28:07.161Z,151.88
2022-08-30T12:29:07.137Z,140.63
2022-08-30T12:30:07.119Z,185.63
2022-08-30T12:31:07.092Z,348.75
2022-08-30T12:32:07.087Z,382.50
2022-08-30T12:33:07.053Z,365.63
2022-08-30T12:34:07.030Z,410.63
2022-08-30T12:35:07.006Z,405.00
2022-08-30T12:36:06.987Z,410.63
2022-08-30T12:37:06.963Z,399.38
2022-08-30T12:38:06.936Z,405.00
2022-08-30T12:39:06.921Z,410.63
2022-08-30T12:40:07.009Z,405.00
2022-08-30T12:41:06.879Z,405.00
2022-08-30T12:42:06.859Z,388.13
2022-08-30T12:43:07.806Z,416.25
2022-08-30T12:44:06.813Z,416.25
2022-08-30T12:45:06.790Z,399.38
2022-08-30T12:46:07.361Z,320.63
2022-08-30T12:47:06.745Z,270.00
2022-08-30T12:48:06.887Z,253.13
2022-08-30T12:49:06.706Z,151.88
2022-08-30T12:50:06.684Z,140.63
2022-08-30T12:51:06.665Z,135.00
2022-08-30T12:52:06.642Z,135.00
2022-08-30T12:53:10.442Z,129.38
2022-08-30T12:54:06.599Z,129.38
2022-08-30T12:55:13.528Z,135.00
2022-08-30T12:56:06.565Z,140.63
2022-08-30T12:57:25.383Z,174.38
2022-08-30T12:58:06.516Z,309.38
2022-08-30T12:59:06.517Z,270.00
2022-08-30T13:00:06.486Z,230.63
2022-08-30T13:01:06.642Z,343.13
2022-08-30T13:02:06.566Z,416.25
2022-08-30T13:03:16.004Z,438.75
2022-08-30T13:04:06.394Z,461.25
2022-08-30T13:05:06.369Z,466.88
2022-08-30T13:06:06.376Z,472.50
2022-08-30T13:07:06.327Z,466.88
2022-08-30T13:08:06.319Z,472.50
2022-08-30T13:09:06.288Z,478.13
2022-08-30T13:10:06.272Z,472.50
2022-08-30T13:11:08.499Z,472.50
2022-08-30T13:12:06.226Z,483.75
2022-08-30T13:13:06.206Z,489.38
2022-08-30T13:14:06.187Z,495.00
2022-08-30T13:15:06.166Z,495.00
2022-08-30T13:16:06.173Z,506.25
2022-08-30T13:17:06.128Z,511.88
2022-08-30T13:18:06.104Z,511.88
2022-08-30T13:19:06.085Z,517.50
2022-08-30T13:20:06.064Z,523.13
2022-08-30T13:21:06.048Z,523.13
2022-08-30T13:22:06.022Z,528.75
2022-08-30T13:23:06.004Z,528.75
2022-08-30T13:24:05.980Z,528.75
2022-08-30T13:25:05.970Z,528.75
2022-08-30T13:26:05.950Z,523.13
2022-08-30T13:27:05.923Z,528.75
2022-08-30T13:28:05.905Z,534.38
2022-08-30T13:29:10.461Z,534.38
2022-08-30T13:30:05.866Z,534.38
2022-08-30T13:31:05.892Z,534.38
2022-08-30T13:32:05.837Z,528.75
2022-08-30T13:33:05.817Z,523.13
2022-08-30T13:34:05.789Z,528.75
2022-08-30T13:35:05.771Z,528.75
2022-08-30T13:36:05.750Z,528.75
2022-08-30T13:37:05.764Z,517.50
2022-08-30T13:38:05.714Z,506.25
2022-08-30T13:39:05.704Z,528.75
2022-08-30T13:40:05.815Z,528.75
2022-08-30T13:41:05.662Z,528.75
2022-08-30T13:43:05.626Z,495.00
2022-08-30T13:44:14.069Z,483.75
2022-08-30T13:45:40.815Z,545.63
2022-08-30T13:46:05.612Z,545.63
2022-08-30T13:48:05.529Z,371.25
2022-08-30T13:49:05.593Z,461.25
2022-08-30T13:50:05.490Z,478.13
2022-08-30T13:51:05.473Z,545.63
2022-08-30T13:52:19.938Z,562.50
2022-08-30T13:53:05.434Z,568.13
2022-08-30T13:54:05.422Z,540.00
2022-08-30T13:55:05.394Z,551.25
2022-08-30T13:56:05.377Z,540.00
2022-08-30T13:57:05.358Z,534.38
2022-08-30T13:58:05.339Z,534.38
2022-08-30T13:59:05.323Z,511.88
2022-08-30T14:00:05.308Z,466.88
2022-08-30T14:01:05.320Z,472.50
2022-08-30T14:02:08.745Z,483.75
2022-08-30T14:03:05.257Z,568.13
2022-08-30T14:04:20.604Z,534.38
2022-08-30T14:05:05.243Z,433.13
2022-08-30T14:06:31.602Z,540.00
2022-08-30T14:07:14.093Z,579.38
2022-08-30T14:08:05.918Z,562.50
2022-08-30T14:09:05.401Z,579.38
2022-08-30T14:11:05.112Z,568.13
2022-08-30T14:12:05.081Z,585.00
2022-08-30T14:13:09.065Z,585.00
2022-08-30T14:14:39.110Z,478.13
2022-08-30T14:15:05.028Z,489.38
2022-08-30T14:17:05.051Z,540.00
2022-08-30T14:18:04.967Z,528.75
2022-08-30T14:19:05.696Z,410.63
2022-08-30T14:20:04.934Z,331.88
2022-08-30T14:21:04.916Z,309.38
2022-08-30T14:22:04.899Z,225.00
2022-08-30T14:23:04.889Z,219.38
2022-08-30T14:24:04.877Z,433.13
2022-08-30T14:25:04.875Z,506.25
2022-08-30T14:26:04.829Z,495.00
2022-08-30T14:27:04.810Z,534.38
2022-08-30T14:28:05.022Z,545.63
2022-08-30T14:29:04.775Z,450.00
2022-08-30T14:30:04.753Z,405.00
2022-08-30T14:31:04.795Z,388.13
2022-08-30T14:32:04.717Z,523.13
2022-08-30T14:33:04.700Z,495.00
2022-08-30T14:34:05.330Z,466.88
2022-08-30T14:35:04.667Z,371.25
2022-08-30T14:36:04.647Z,596.25
2022-08-30T14:37:04.639Z,596.25
2022-08-30T14:38:04.609Z,590.63
2022-08-30T14:39:08.452Z,551.25
2022-08-30T14:40:04.624Z,405.00
2022-08-30T14:41:04.565Z,500.63
2022-08-30T14:42:07.585Z,517.50
2022-08-30T14:43:04.517Z,556.88
2022-08-30T14:44:04.520Z,562.50
2022-08-30T14:45:04.479Z,556.88
2022-08-30T14:46:04.515Z,551.25
2022-08-30T14:47:04.446Z,545.63
2022-08-30T14:48:04.427Z,489.38
2022-08-30T14:49:04.408Z,489.38
2022-08-30T14:50:04.388Z,489.38
2022-08-30T14:51:04.370Z,483.75
2022-08-30T14:52:04.356Z,489.38
2022-08-30T14:53:04.333Z,483.75
2022-08-30T14:54:04.319Z,489.38
2022-08-30T14:55:08.636Z,495.00
2022-08-30T14:56:04.277Z,489.38
2022-08-30T14:57:04.272Z,495.00
2022-08-30T14:58:04.241Z,495.00
2022-08-30T14:59:04.222Z,466.88
2022-08-30T15:00:04.222Z,438.75
2022-08-30T15:01:04.238Z,405.00
2022-08-30T15:02:04.174Z,478.13
2022-08-30T15:03:04.148Z,461.25
2022-08-30T15:04:04.169Z,444.38
2022-08-30T15:05:04.107Z,410.63
2022-08-30T15:06:04.098Z,410.63
2022-08-30T15:07:04.071Z,399.38
2022-08-30T15:08:04.050Z,343.13
2022-08-30T15:09:04.034Z,275.63
2022-08-30T15:10:04.014Z,320.63
2022-08-30T15:11:03.997Z,315.00
2022-08-30T15:12:03.974Z,343.13
2022-08-30T15:13:05.028Z,371.25
2022-08-30T15:14:03.937Z,433.13
2022-08-30T15:15:03.922Z,455.63
2022-08-30T15:16:03.948Z,450.00
2022-08-30T15:17:03.888Z,405.00
2022-08-30T15:18:03.864Z,393.75
2022-08-30T15:19:03.864Z,348.75
2022-08-30T15:20:07.404Z,348.75
2022-08-30T15:21:03.813Z,354.38
2022-08-30T15:22:03.785Z,337.50
2022-08-30T15:23:03.766Z,360.00
2022-08-30T15:24:03.744Z,382.50
2022-08-30T15:25:03.726Z,416.25
2022-08-30T15:26:03.708Z,416.25
2022-08-30T15:27:03.686Z,230.63
2022-08-30T15:28:03.668Z,202.50
2022-08-30T15:29:03.654Z,264.38
2022-08-30T15:30:03.628Z,286.88
2022-08-30T15:31:08.577Z,309.38
2022-08-30T15:32:03.696Z,247.50
2022-08-30T15:33:03.568Z,281.25
2022-08-30T15:34:03.549Z,219.38
2022-08-30T15:35:03.538Z,202.50
2022-08-30T15:36:04.396Z,191.25
2022-08-30T15:37:03.626Z,135.00
2022-08-30T15:38:03.469Z,185.63
2022-08-30T15:39:03.451Z,202.50
2022-08-30T15:40:04.564Z,196.88
2022-08-30T15:41:03.412Z,230.63
2022-08-30T15:42:03.722Z,219.38
2022-08-30T15:43:03.372Z,219.38
2022-08-30T15:44:03.352Z,191.25
2022-08-30T15:45:03.332Z,129.38
2022-08-30T15:46:03.310Z,118.13
2022-08-30T15:47:03.331Z,90.00
2022-08-30T15:48:03.265Z,95.63
2022-08-30T15:49:03.248Z,84.38
2022-08-30T15:50:03.238Z,90.00
2022-08-30T15:51:03.214Z,90.00
2022-08-30T15:52:03.193Z,84.38
2022-08-30T15:53:03.161Z,78.75
2022-08-30T15:54:03.141Z,78.75
2022-08-30T15:55:03.121Z,90.00
2022-08-30T15:56:03.122Z,118.13
2022-08-30T15:57:03.073Z,343.13
2022-08-30T15:58:03.055Z,331.88
2022-08-30T15:59:03.044Z,230.63
2022-08-30T16:00:03.021Z,191.25
2022-08-30T16:01:03.045Z,112.50
2022-08-30T16:02:03.005Z,101.25
2022-08-30T16:03:02.948Z,112.50
2022-08-30T16:05:41.466Z,95.63
2022-08-30T16:08:19.966Z,168.75
2022-08-30T16:09:19.931Z,163.13
2022-08-30T16:11:23.846Z,191.25
2022-08-30T16:12:23.996Z,258.75
2022-08-30T16:14:27.752Z,241.88
2022-08-30T16:15:30.260Z,168.75
2022-08-30T16:17:31.636Z,123.75
2022-08-30T16:18:31.627Z,157.50
2022-08-30T16:20:35.544Z,225.00
2022-08-30T16:21:35.502Z,180.00
2022-08-30T16:23:39.439Z,101.25
2022-08-30T16:24:39.399Z,90.00
2022-08-30T16:26:43.399Z,180.00
2022-08-30T16:27:43.344Z,191.25
2022-08-30T16:29:47.229Z,219.38
2022-08-30T16:30:47.198Z,168.75
2022-08-30T16:32:51.117Z,90.00
2022-08-30T16:33:52.694Z,84.38